createdAt,value
2018-01-26T00:00:33.513Z,8.31
2018-01-26T00:01:33.531Z,8.27
2018-01-26T00:02:33.560Z,8.36
2018-01-26T00:03:33.559Z,8.26
2018-01-26T00:04:33.581Z,8.42
2018-01-26T00:05:33.596Z,8.34
2018-01-26T00:06:33.611Z,8.26
2018-01-26T00:07:33.635Z,8.42
2018-01-26T00:08:33.643Z,8.35
2018-01-26T00:09:33.665Z,8.34
2018-01-26T00:10:33.718Z,8.32
2018-01-26T00:11:33.694Z,8.26
2018-01-26T00:12:33.715Z,8.28
2018-01-26T00:13:33.729Z,8.27
2018-01-26T00:14:33.750Z,8.41
2018-01-26T00:15:33.760Z,8.36
2018-01-26T00:16:33.778Z,8.36
2018-01-26T00:17:33.787Z,8.27
2018-01-26T00:18:33.812Z,8.36
2018-01-26T00:19:33.831Z,8.34
2018-01-26T00:20:33.840Z,8.24
2018-01-26T00:21:33.860Z,8.26
2018-01-26T00:22:33.880Z,8.27
2018-01-26T00:23:33.892Z,8.34
2018-01-26T00:24:33.913Z,8.28
2018-01-26T00:25:33.918Z,8.26
2018-01-26T00:26:33.946Z,8.28
2018-01-26T00:27:33.958Z,8.36
2018-01-26T00:28:33.967Z,8.24
2018-01-26T00:29:34.007Z,8.26
2018-01-26T00:30:34.006Z,8.35
2018-01-26T00:31:34.027Z,8.34
2018-01-26T00:32:34.050Z,8.32
2018-01-26T00:33:34.053Z,8.28
2018-01-26T00:34:34.077Z,8.26
2018-01-26T00:35:34.083Z,8.28
2018-01-26T00:36:34.108Z,8.24
2018-01-26T00:37:34.118Z,8.27
2018-01-26T00:38:34.133Z,8.27
2018-01-26T00:39:34.157Z,8.27
2018-01-26T00:40:34.171Z,8.24
2018-01-26T00:41:34.184Z,8.23
2018-01-26T00:42:34.203Z,8.27
2018-01-26T00:43:34.215Z,8.26
2018-01-26T00:44:34.238Z,8.21
2018-01-26T00:45:34.253Z,8.24
2018-01-26T00:46:34.265Z,8.27
2018-01-26T00:47:34.292Z,8.24
2018-01-26T00:48:34.300Z,8.28
2018-01-26T00:49:34.317Z,8.28
2018-01-26T00:50:34.333Z,8.27
2018-01-26T00:51:34.352Z,8.26
2018-01-26T00:52:34.360Z,8.31
2018-01-26T00:53:34.384Z,8.23
2018-01-26T00:54:34.399Z,8.26
2018-01-26T00:55:34.415Z,8.27
2018-01-26T00:56:34.434Z,8.18
2018-01-26T00:57:34.439Z,8.26
2018-01-26T00:58:34.470Z,8.17
2018-01-26T00:59:34.484Z,8.21
2018-01-26T01:00:34.492Z,8.24
2018-01-26T01:01:34.518Z,8.20
2018-01-26T01:02:34.520Z,8.16
2018-01-26T01:03:34.546Z,8.21
2018-01-26T01:04:34.567Z,8.23
2018-01-26T01:05:34.579Z,8.23
2018-01-26T01:06:34.598Z,8.17
2018-01-26T01:07:34.607Z,8.14
2018-01-26T01:08:34.623Z,8.21
2018-01-26T01:09:34.644Z,8.06
2018-01-26T01:10:34.657Z,8.18
2018-01-26T01:11:34.682Z,8.08
2018-01-26T01:12:34.690Z,8.23
2018-01-26T01:13:34.707Z,8.21
2018-01-26T01:14:34.722Z,8.20
2018-01-26T01:15:34.742Z,8.24
2018-01-26T01:16:34.746Z,8.08
2018-01-26T01:17:34.771Z,8.18
2018-01-26T01:18:34.802Z,8.09
2018-01-26T01:19:34.805Z,8.11
2018-01-26T01:20:34.825Z,8.21
2018-01-26T01:21:34.830Z,8.24
2018-01-26T01:22:34.856Z,8.17
2018-01-26T01:23:34.876Z,8.17
2018-01-26T01:24:34.881Z,8.20
2018-01-26T01:25:34.906Z,8.17
2018-01-26T01:26:34.910Z,8.23
2018-01-26T01:27:34.933Z,8.23
2018-01-26T01:28:34.955Z,8.20
2018-01-26T01:29:34.960Z,8.11
2018-01-26T01:30:34.989Z,8.21
2018-01-26T01:31:34.993Z,8.23
2018-01-26T01:32:35.014Z,8.16
2018-01-26T01:33:35.031Z,8.18
2018-01-26T01:34:35.048Z,8.24
2018-01-26T01:35:35.072Z,8.24
2018-01-26T01:36:35.079Z,8.20
2018-01-26T01:37:35.095Z,8.24
2018-01-26T01:38:35.108Z,8.24
2018-01-26T01:39:35.129Z,8.13
2018-01-26T01:40:35.146Z,8.20
2018-01-26T01:41:35.158Z,8.17
2018-01-26T01:42:35.178Z,8.18
2018-01-26T01:43:35.191Z,8.20
2018-01-26T01:44:35.215Z,8.20
2018-01-26T01:45:35.235Z,8.18
2018-01-26T01:46:35.240Z,8.18
2018-01-26T01:47:35.262Z,8.21
2018-01-26T01:48:35.273Z,8.23
2018-01-26T01:49:35.296Z,8.21
2018-01-26T01:50:35.301Z,8.20
2018-01-26T01:51:35.328Z,8.16
2018-01-26T01:52:35.346Z,8.21
2018-01-26T01:53:35.351Z,8.23
2018-01-26T01:54:35.377Z,8.27
2018-01-26T01:55:35.401Z,8.23
2018-01-26T01:56:35.411Z,8.23
2018-01-26T01:57:35.425Z,8.21
2018-01-26T01:58:35.435Z,8.28
2018-01-26T01:59:35.456Z,8.23
2018-01-26T02:00:35.476Z,8.26
2018-01-26T02:01:35.490Z,8.26
2018-01-26T02:02:35.507Z,8.21
2018-01-26T02:03:35.532Z,8.26
2018-01-26T02:04:35.541Z,8.28
2018-01-26T02:05:35.561Z,8.20
2018-01-26T02:06:35.569Z,8.28
2018-01-26T02:07:35.586Z,8.21
2018-01-26T02:08:35.595Z,8.27
2018-01-26T02:09:35.622Z,8.24
2018-01-26T02:10:35.633Z,8.23
2018-01-26T02:11:35.652Z,8.27
2018-01-26T02:12:35.672Z,8.24
2018-01-26T02:13:35.676Z,8.24
2018-01-26T02:14:35.706Z,8.27
2018-01-26T02:15:35.721Z,8.31
2018-01-26T02:16:35.731Z,8.27
2018-01-26T02:17:35.756Z,8.27
2018-01-26T02:18:35.759Z,8.28
2018-01-26T02:19:35.829Z,8.31
2018-01-26T02:20:35.812Z,8.26
2018-01-26T02:21:35.810Z,8.23
2018-01-26T02:22:35.850Z,8.28
2018-01-26T02:23:35.844Z,8.27
2018-01-26T02:24:35.866Z,8.24
2018-01-26T02:25:35.891Z,8.26
2018-01-26T02:26:35.896Z,8.23
2018-01-26T02:27:35.924Z,8.21
2018-01-26T02:28:35.930Z,8.31
2018-01-26T02:29:35.946Z,8.32
2018-01-26T02:30:35.971Z,8.23
2018-01-26T02:31:35.974Z,8.26
2018-01-26T02:32:35.996Z,8.34
2018-01-26T02:33:36.009Z,8.24
2018-01-26T02:34:36.032Z,8.24
2018-01-26T02:35:36.054Z,8.23
2018-01-26T02:36:36.062Z,8.24
2018-01-26T02:37:36.082Z,8.26
2018-01-26T02:38:36.093Z,8.21
2018-01-26T02:39:36.108Z,8.26
2018-01-26T02:40:36.132Z,8.26
2018-01-26T02:41:36.145Z,8.21
2018-01-26T02:42:36.159Z,8.31
2018-01-26T02:43:36.185Z,8.32
2018-01-26T02:44:36.197Z,8.32
2018-01-26T02:45:36.218Z,8.21
2018-01-26T02:46:36.226Z,8.17
2018-01-26T02:47:36.281Z,8.20
2018-01-26T02:48:36.269Z,8.23
2018-01-26T02:49:36.280Z,8.18
2018-01-26T02:50:36.297Z,8.23
2018-01-26T02:51:36.313Z,8.23
2018-01-26T02:52:36.328Z,8.24
2018-01-26T02:53:36.333Z,8.21
2018-01-26T02:54:36.365Z,8.21
2018-01-26T02:55:36.378Z,8.23
2018-01-26T02:56:36.389Z,8.26
2018-01-26T02:57:36.426Z,8.21
2018-01-26T02:58:36.416Z,8.21
2018-01-26T02:59:36.441Z,8.21
2018-01-26T03:00:36.463Z,8.21
2018-01-26T03:01:36.485Z,8.23
2018-01-26T03:02:36.495Z,8.21
2018-01-26T03:03:36.500Z,8.21
2018-01-26T03:04:36.520Z,8.26
2018-01-26T03:05:36.548Z,8.18
2018-01-26T03:06:36.549Z,8.28
2018-01-26T03:07:36.580Z,8.27
2018-01-26T03:08:36.588Z,8.24
2018-01-26T03:09:36.606Z,8.23
2018-01-26T03:10:36.621Z,8.23
2018-01-26T03:11:36.648Z,8.21
2018-01-26T03:12:36.653Z,8.23
2018-01-26T03:13:36.668Z,8.21
2018-01-26T03:14:36.685Z,8.28
2018-01-26T03:15:36.709Z,8.26
2018-01-26T03:16:36.720Z,8.23
2018-01-26T03:17:36.735Z,8.21
2018-01-26T03:18:36.748Z,8.16
2018-01-26T03:19:36.764Z,8.23
2018-01-26T03:20:36.775Z,8.18
2018-01-26T03:21:36.803Z,8.23
2018-01-26T03:22:36.817Z,8.16
2018-01-26T03:23:36.832Z,8.18
2018-01-26T03:24:36.856Z,8.21
2018-01-26T03:25:36.858Z,8.26
2018-01-26T03:26:36.884Z,8.21
2018-01-26T03:27:36.897Z,8.18
2018-01-26T03:28:36.907Z,8.21
2018-01-26T03:29:36.937Z,8.21
2018-01-26T03:30:36.937Z,8.23
2018-01-26T03:31:36.962Z,8.18
2018-01-26T03:32:36.990Z,8.28
2018-01-26T03:33:36.988Z,8.24
2018-01-26T03:34:37.016Z,8.27
2018-01-26T03:35:37.020Z,8.23
2018-01-26T03:36:37.043Z,8.24
2018-01-26T03:37:37.056Z,8.24
2018-01-26T03:38:37.077Z,8.23
2018-01-26T03:39:37.100Z,8.27
2018-01-26T03:40:37.106Z,8.26
2018-01-26T03:41:37.126Z,8.23
2018-01-26T03:42:37.150Z,8.24
2018-01-26T03:43:37.155Z,8.26
2018-01-26T03:44:37.178Z,8.23
2018-01-26T03:45:37.189Z,8.24
2018-01-26T03:46:37.209Z,8.24
2018-01-26T03:47:37.236Z,8.31
2018-01-26T03:48:37.248Z,8.21
2018-01-26T03:49:37.262Z,8.28
2018-01-26T03:50:37.281Z,8.24
2018-01-26T03:51:37.289Z,8.26
2018-01-26T03:52:37.313Z,8.31
2018-01-26T03:53:37.324Z,8.31
2018-01-26T03:54:37.342Z,8.31
2018-01-26T03:55:37.353Z,8.24
2018-01-26T03:56:37.376Z,8.23
2018-01-26T03:57:37.380Z,8.27
2018-01-26T03:58:37.409Z,8.24
2018-01-26T03:59:37.421Z,8.23
2018-01-26T04:00:37.434Z,8.31
2018-01-26T04:01:37.455Z,8.23
2018-01-26T04:02:37.465Z,8.28
2018-01-26T04:03:37.481Z,8.31
2018-01-26T04:04:37.502Z,8.24
2018-01-26T04:05:37.519Z,8.28
2018-01-26T04:06:37.534Z,8.28
2018-01-26T04:07:37.548Z,8.23
2018-01-26T04:08:37.569Z,8.24
2018-01-26T04:09:37.587Z,8.34
2018-01-26T04:10:37.601Z,8.21
2018-01-26T04:11:37.620Z,8.27
2018-01-26T04:12:37.624Z,8.41
2018-01-26T04:13:37.651Z,8.26
2018-01-26T04:14:37.671Z,8.28
2018-01-26T04:15:37.680Z,8.28
2018-01-26T04:16:37.705Z,8.28
2018-01-26T04:17:37.710Z,8.26
2018-01-26T04:18:37.733Z,8.23
2018-01-26T04:19:37.751Z,8.21
2018-01-26T04:20:37.758Z,8.26
2018-01-26T04:21:37.784Z,8.28
2018-01-26T04:22:37.791Z,8.27
2018-01-26T04:23:37.813Z,8.26
2018-01-26T04:24:37.836Z,8.26
2018-01-26T04:25:37.844Z,8.32
2018-01-26T04:26:37.870Z,8.27
2018-01-26T04:27:37.875Z,8.23
2018-01-26T04:28:37.893Z,8.23
2018-01-26T04:29:37.907Z,8.16
2018-01-26T04:30:37.920Z,8.27
2018-01-26T04:31:37.947Z,8.20
2018-01-26T04:32:37.955Z,8.16
2018-01-26T04:33:37.977Z,8.21
2018-01-26T04:34:37.986Z,8.14
2018-01-26T04:35:38.006Z,8.23
2018-01-26T04:36:38.043Z,8.21
2018-01-26T04:37:38.036Z,8.18
2018-01-26T04:38:38.059Z,8.20
2018-01-26T04:39:38.069Z,8.13
2018-01-26T04:40:38.094Z,8.21
2018-01-26T04:41:38.096Z,8.08
2018-01-26T04:42:38.126Z,8.14
2018-01-26T04:43:38.136Z,8.06
2018-01-26T04:44:38.196Z,8.11
2018-01-26T04:45:38.171Z,8.09
2018-01-26T04:46:38.179Z,8.09
2018-01-26T04:47:38.204Z,8.11
2018-01-26T04:48:38.212Z,8.09
2018-01-26T04:49:38.230Z,8.06
2018-01-26T04:50:38.255Z,8.08
2018-01-26T04:51:38.259Z,8.09
2018-01-26T04:52:38.282Z,8.03
2018-01-26T04:53:38.293Z,8.03
2018-01-26T04:54:38.323Z,8.03
2018-01-26T04:55:38.326Z,8.01
2018-01-26T04:56:38.350Z,8.01
2018-01-26T04:57:38.350Z,8.02
2018-01-26T04:58:38.390Z,7.96
2018-01-26T04:59:38.397Z,7.99
2018-01-26T05:00:38.406Z,7.95
2018-01-26T05:01:38.428Z,7.96
2018-01-26T05:02:38.433Z,7.88
2018-01-26T05:03:38.456Z,7.91
2018-01-26T05:04:38.478Z,7.95
2018-01-26T05:05:38.486Z,7.93
2018-01-26T05:06:38.510Z,7.95
2018-01-26T05:07:38.519Z,7.85
2018-01-26T05:08:38.535Z,7.83
2018-01-26T05:09:38.551Z,7.87
2018-01-26T05:10:38.564Z,7.87
2018-01-26T05:11:38.580Z,7.90
2018-01-26T05:12:38.610Z,7.90
2018-01-26T05:13:38.619Z,7.83
2018-01-26T05:14:38.630Z,7.93
2018-01-26T05:15:38.652Z,7.88
2018-01-26T05:16:38.658Z,7.87
2018-01-26T05:17:38.686Z,7.90
2018-01-26T05:18:38.690Z,7.83
2018-01-26T05:19:38.714Z,7.91
2018-01-26T05:20:38.726Z,7.80
2018-01-26T05:21:38.735Z,7.75
2018-01-26T05:22:38.767Z,7.81
2018-01-26T05:23:38.767Z,7.77
2018-01-26T05:24:38.789Z,7.78
2018-01-26T05:25:38.805Z,7.75
2018-01-26T05:26:38.821Z,7.69
2018-01-26T05:27:38.837Z,7.66
2018-01-26T05:28:38.856Z,7.74
2018-01-26T05:29:38.859Z,7.67
2018-01-26T05:30:38.896Z,7.74
2018-01-26T05:31:38.900Z,7.72
2018-01-26T05:32:38.910Z,7.66
2018-01-26T05:33:38.935Z,7.67
2018-01-26T05:34:38.943Z,7.75
2018-01-26T05:35:38.971Z,7.64
2018-01-26T05:36:38.976Z,7.59
2018-01-26T05:37:38.998Z,7.66
2018-01-26T05:38:39.006Z,7.67
2018-01-26T05:39:39.024Z,7.69
2018-01-26T05:40:39.045Z,7.61
2018-01-26T05:41:39.059Z,7.67
2018-01-26T05:42:39.066Z,7.66
2018-01-26T05:43:39.091Z,7.69
2018-01-26T05:44:39.108Z,7.67
2018-01-26T05:45:39.113Z,7.66
2018-01-26T05:46:39.144Z,7.62
2018-01-26T05:47:39.145Z,7.59
2018-01-26T05:48:39.179Z,7.51
2018-01-26T05:49:39.182Z,7.58
2018-01-26T05:50:39.199Z,7.61
2018-01-26T05:51:39.212Z,7.59
2018-01-26T05:52:39.231Z,7.50
2018-01-26T05:53:39.239Z,7.62
2018-01-26T05:54:39.261Z,7.50
2018-01-26T05:55:39.265Z,7.51
2018-01-26T05:56:39.296Z,7.53
2018-01-26T05:57:39.317Z,7.50
2018-01-26T05:58:39.322Z,7.51
2018-01-26T05:59:39.344Z,7.55
2018-01-26T06:00:39.352Z,7.51
2018-01-26T06:01:39.369Z,7.51
2018-01-26T06:02:39.380Z,7.51
2018-01-26T06:03:39.397Z,7.55
2018-01-26T06:04:39.406Z,7.48
2018-01-26T06:05:39.432Z,7.53
2018-01-26T06:06:39.439Z,7.50
2018-01-26T06:07:39.464Z,7.50
2018-01-26T06:08:39.489Z,7.47
2018-01-26T06:09:39.492Z,7.47
2018-01-26T06:10:39.516Z,7.48
2018-01-26T06:11:39.525Z,7.36
2018-01-26T06:12:39.546Z,7.40
2018-01-26T06:13:39.551Z,7.41
2018-01-26T06:14:39.575Z,7.40
2018-01-26T06:15:39.580Z,7.37
2018-01-26T06:16:39.601Z,7.36
2018-01-26T06:17:39.614Z,7.40
2018-01-26T06:18:39.633Z,7.40
2018-01-26T06:19:39.946Z,7.28
2018-01-26T06:20:39.672Z,7.26
2018-01-26T06:21:39.671Z,7.23
2018-01-26T06:22:39.699Z,7.25
2018-01-26T06:23:39.700Z,7.23
2018-01-26T06:24:39.722Z,7.25
2018-01-26T06:25:39.748Z,7.25
2018-01-26T06:26:39.751Z,7.26
2018-01-26T06:27:39.766Z,7.22
2018-01-26T06:28:39.787Z,7.14
2018-01-26T06:29:39.804Z,7.21
2018-01-26T06:30:39.821Z,7.15
2018-01-26T06:31:39.835Z,7.13
2018-01-26T06:32:39.849Z,7.18
2018-01-26T06:33:39.861Z,7.10
2018-01-26T06:34:39.873Z,7.05
2018-01-26T06:35:39.898Z,7.15
2018-01-26T06:36:39.911Z,7.13
2018-01-26T06:37:39.925Z,7.13
2018-01-26T06:38:39.941Z,7.11
2018-01-26T06:39:39.957Z,7.10
2018-01-26T06:40:39.967Z,7.07
2018-01-26T06:41:40.023Z,7.04
2018-01-26T06:42:39.997Z,6.97
2018-01-26T06:43:40.034Z,7.01
2018-01-26T06:44:40.033Z,6.95
2018-01-26T06:45:40.053Z,7.01
2018-01-26T06:46:40.066Z,6.95
2018-01-26T06:47:40.093Z,6.95
2018-01-26T06:48:40.085Z,6.95
2018-01-26T06:49:40.115Z,6.95
2018-01-26T06:50:40.117Z,6.89
2018-01-26T06:51:40.143Z,6.93
2018-01-26T06:52:40.153Z,6.90
2018-01-26T06:53:40.174Z,6.93
2018-01-26T06:54:40.180Z,6.97
2018-01-26T06:55:40.196Z,6.97
2018-01-26T06:56:40.210Z,6.95
2018-01-26T06:57:40.232Z,6.85
2018-01-26T06:58:40.244Z,6.92
2018-01-26T06:59:40.262Z,6.90
2018-01-26T07:00:40.282Z,6.93
2018-01-26T07:01:40.287Z,6.90
2018-01-26T07:02:40.303Z,6.85
2018-01-26T07:03:40.320Z,6.89
2018-01-26T07:04:40.330Z,6.86
2018-01-26T07:05:40.348Z,6.87
2018-01-26T07:06:40.357Z,6.86
2018-01-26T07:07:40.386Z,6.90
2018-01-26T07:08:40.392Z,6.90
2018-01-26T07:09:40.398Z,6.86
2018-01-26T07:10:40.425Z,6.87
2018-01-26T07:11:40.445Z,6.93
2018-01-26T07:12:40.452Z,6.92
2018-01-26T07:13:40.465Z,6.95
2018-01-26T07:14:40.484Z,6.93
2018-01-26T07:15:40.507Z,6.86
2018-01-26T07:16:40.519Z,6.89
2018-01-26T07:17:40.518Z,6.95
2018-01-26T07:18:40.546Z,6.83
2018-01-26T07:19:40.562Z,6.85
2018-01-26T07:20:40.573Z,6.83
2018-01-26T07:21:40.589Z,6.86
2018-01-26T07:22:40.601Z,6.85
2018-01-26T07:23:40.638Z,6.86
2018-01-26T07:24:40.637Z,6.87
2018-01-26T07:25:40.643Z,6.93
2018-01-26T07:26:40.666Z,6.83
2018-01-26T07:27:40.685Z,6.86
2018-01-26T07:28:40.692Z,6.83
2018-01-26T07:29:40.711Z,6.86
2018-01-26T07:30:40.725Z,6.90
2018-01-26T07:31:40.748Z,6.83
2018-01-26T07:32:40.759Z,6.89
2018-01-26T07:33:40.763Z,6.86
2018-01-26T07:34:40.786Z,6.95
2018-01-26T07:35:40.807Z,6.92
2018-01-26T07:36:40.852Z,6.90
2018-01-26T07:37:40.826Z,6.96
2018-01-26T07:38:40.845Z,6.92
2018-01-26T07:39:40.874Z,6.93
2018-01-26T07:40:40.881Z,6.92
2018-01-26T07:41:40.900Z,6.89
2018-01-26T07:42:40.908Z,6.89
2018-01-26T07:43:40.926Z,6.83
2018-01-26T07:44:40.933Z,6.87
2018-01-26T07:45:40.959Z,6.85
2018-01-26T07:46:40.976Z,6.82
2018-01-26T07:47:40.990Z,6.93
2018-01-26T07:48:40.997Z,6.95
2018-01-26T07:49:41.021Z,6.90
2018-01-26T07:50:41.044Z,6.86
2018-01-26T07:51:41.047Z,6.90
2018-01-26T07:52:41.059Z,6.89
2018-01-26T07:53:41.083Z,7.00
2018-01-26T07:54:41.090Z,6.92
2018-01-26T07:55:41.111Z,6.92
2018-01-26T07:56:41.123Z,6.95
2018-01-26T07:57:41.143Z,6.92
2018-01-26T07:58:41.152Z,6.96
2018-01-26T07:59:41.168Z,6.92
2018-01-26T08:00:41.179Z,6.96
2018-01-26T08:01:41.204Z,6.95
2018-01-26T08:02:41.208Z,6.87
2018-01-26T08:03:41.234Z,6.93
2018-01-26T08:04:41.243Z,6.93
2018-01-26T08:05:41.263Z,6.93
2018-01-26T08:06:41.274Z,6.97
2018-01-26T08:07:41.311Z,6.89
2018-01-26T08:08:41.297Z,6.97
2018-01-26T08:09:41.322Z,6.95
2018-01-26T08:10:41.332Z,6.93
2018-01-26T08:11:41.354Z,6.93
2018-01-26T08:12:41.363Z,6.93
2018-01-26T08:13:41.383Z,7.00
2018-01-26T08:14:41.391Z,6.92
2018-01-26T08:15:41.409Z,6.95
2018-01-26T08:16:41.422Z,6.95
2018-01-26T08:17:41.460Z,6.93
2018-01-26T08:18:41.457Z,6.95
2018-01-26T08:19:41.473Z,6.95
2018-01-26T08:20:41.486Z,6.87
2018-01-26T08:21:41.508Z,6.89
2018-01-26T08:22:41.508Z,6.83
2018-01-26T08:23:41.538Z,6.83
2018-01-26T08:24:41.546Z,6.86
2018-01-26T08:25:41.562Z,6.90
2018-01-26T08:26:41.577Z,6.93
2018-01-26T08:27:41.607Z,6.83
2018-01-26T08:28:41.603Z,6.78
2018-01-26T08:29:41.627Z,6.83
2018-01-26T08:30:41.630Z,6.85
2018-01-26T08:31:41.654Z,6.77
2018-01-26T08:32:41.666Z,6.78
2018-01-26T08:33:41.688Z,6.72
2018-01-26T08:34:41.695Z,6.85
2018-01-26T08:35:41.713Z,6.77
2018-01-26T08:36:41.732Z,6.72
2018-01-26T08:37:41.747Z,6.72
2018-01-26T08:38:41.753Z,6.78
2018-01-26T08:39:41.779Z,6.72
2018-01-26T08:40:41.804Z,6.77
2018-01-26T08:41:41.805Z,6.78
2018-01-26T08:42:41.819Z,6.72
2018-01-26T08:43:41.834Z,6.72
2018-01-26T08:44:41.847Z,6.74
2018-01-26T08:45:41.874Z,6.72
2018-01-26T08:46:41.880Z,6.75
2018-01-26T08:47:41.901Z,6.78
2018-01-26T08:48:41.926Z,6.71
2018-01-26T08:49:41.926Z,6.77
2018-01-26T08:50:41.941Z,6.72
2018-01-26T08:51:41.956Z,6.72
2018-01-26T08:52:41.978Z,6.80
2018-01-26T08:53:41.991Z,6.72
2018-01-26T08:54:41.994Z,6.77
2018-01-26T08:55:42.019Z,6.86
2018-01-26T08:56:42.046Z,6.80
2018-01-26T08:57:42.044Z,6.80
2018-01-26T08:58:42.061Z,6.82
2018-01-26T08:59:42.079Z,6.77
2018-01-26T09:00:42.103Z,6.75
2018-01-26T09:01:42.112Z,6.74
2018-01-26T09:02:42.115Z,6.78
2018-01-26T09:03:42.140Z,6.75
2018-01-26T09:04:42.162Z,6.77
2018-01-26T09:05:42.166Z,6.83
2018-01-26T09:06:42.181Z,6.78
2018-01-26T09:07:42.213Z,6.82
2018-01-26T09:08:42.218Z,6.74
2018-01-26T09:09:42.231Z,6.75
2018-01-26T09:10:42.250Z,6.74
2018-01-26T09:11:42.263Z,6.77
2018-01-26T09:12:42.285Z,6.78
2018-01-26T09:13:42.290Z,6.77
2018-01-26T09:14:42.314Z,6.82
2018-01-26T09:15:42.317Z,6.80
2018-01-26T09:16:42.339Z,6.78
2018-01-26T09:17:42.353Z,6.80
2018-01-26T09:18:42.372Z,6.78
2018-01-26T09:19:42.384Z,6.77
2018-01-26T09:20:42.407Z,6.82
2018-01-26T09:21:42.413Z,6.78
2018-01-26T09:22:42.440Z,6.80
2018-01-26T09:23:42.438Z,6.85
2018-01-26T09:24:42.466Z,6.86
2018-01-26T09:25:42.478Z,6.78
2018-01-26T09:26:42.494Z,6.85
2018-01-26T09:27:42.505Z,6.87
2018-01-26T09:28:42.527Z,6.90
2018-01-26T09:29:42.532Z,6.87
2018-01-26T09:30:42.555Z,6.87
2018-01-26T09:31:42.560Z,6.95
2018-01-26T09:32:42.587Z,6.85
2018-01-26T09:33:42.594Z,6.87
2018-01-26T09:34:42.615Z,6.87
2018-01-26T09:35:42.627Z,6.85
2018-01-26T09:36:42.649Z,6.82
2018-01-26T09:37:42.652Z,6.87
2018-01-26T09:38:42.679Z,6.78
2018-01-26T09:39:42.686Z,6.83
2018-01-26T09:40:42.705Z,6.93
2018-01-26T09:41:42.717Z,6.83
2018-01-26T09:42:42.733Z,6.92
2018-01-26T09:43:42.747Z,6.95
2018-01-26T09:44:42.769Z,6.96
2018-01-26T09:45:42.784Z,6.96
2018-01-26T09:46:42.802Z,6.95
2018-01-26T09:47:42.817Z,6.90
2018-01-26T09:48:42.825Z,6.87
2018-01-26T09:49:42.853Z,6.92
2018-01-26T09:50:42.896Z,6.92
2018-01-26T09:51:42.881Z,6.95
2018-01-26T09:52:42.889Z,6.95
2018-01-26T09:53:42.905Z,6.95
2018-01-26T09:54:42.920Z,6.93
2018-01-26T09:55:42.935Z,6.96
2018-01-26T09:56:42.946Z,6.97
2018-01-26T09:57:42.977Z,6.85
2018-01-26T09:58:42.979Z,6.87
2018-01-26T09:59:43.003Z,6.96
2018-01-26T10:00:43.076Z,6.96
2018-01-26T10:01:43.028Z,6.95
2018-01-26T10:02:43.052Z,6.89
2018-01-26T10:03:43.058Z,7.01
2018-01-26T10:04:43.082Z,6.95
2018-01-26T10:05:43.092Z,6.96
2018-01-26T10:06:43.123Z,6.93
2018-01-26T10:07:43.123Z,6.90
2018-01-26T10:08:43.144Z,6.97
2018-01-26T10:09:43.153Z,7.04
2018-01-26T10:10:43.175Z,7.01
2018-01-26T10:11:43.181Z,7.00
2018-01-26T10:12:43.202Z,7.00
2018-01-26T10:13:43.215Z,6.97
2018-01-26T10:14:43.229Z,7.00
2018-01-26T10:15:43.257Z,7.05
2018-01-26T10:16:43.265Z,7.04
2018-01-26T10:17:43.287Z,7.01
2018-01-26T10:18:43.299Z,7.00
2018-01-26T10:19:43.317Z,7.04
2018-01-26T10:20:43.326Z,7.08
2018-01-26T10:21:43.349Z,7.05
2018-01-26T10:22:43.352Z,7.11
2018-01-26T10:23:43.382Z,7.08
2018-01-26T10:24:43.414Z,7.07
2018-01-26T10:25:43.403Z,7.08
2018-01-26T10:26:43.424Z,7.11
2018-01-26T10:27:43.444Z,7.05
2018-01-26T10:28:43.457Z,7.15
2018-01-26T10:29:43.470Z,7.07
2018-01-26T10:30:43.492Z,7.05
2018-01-26T10:31:43.496Z,7.07
2018-01-26T10:32:43.520Z,7.08
2018-01-26T10:33:43.544Z,7.11
2018-01-26T10:34:43.546Z,7.08
2018-01-26T10:35:43.571Z,7.14
2018-01-26T10:36:43.592Z,7.04
2018-01-26T10:37:43.597Z,7.08
2018-01-26T10:38:43.613Z,7.07
2018-01-26T10:39:43.630Z,7.07
2018-01-26T10:40:43.643Z,7.05
2018-01-26T10:41:43.664Z,7.22
2018-01-26T10:42:43.670Z,7.13
2018-01-26T10:43:43.694Z,7.19
2018-01-26T10:44:43.715Z,7.28
2018-01-26T10:45:43.721Z,7.19
2018-01-26T10:46:43.743Z,7.21
2018-01-26T10:47:43.777Z,7.13
2018-01-26T10:48:43.771Z,7.21
2018-01-26T10:49:43.783Z,7.21
2018-01-26T10:50:43.820Z,7.15
2018-01-26T10:51:43.861Z,7.19
2018-01-26T10:52:43.840Z,7.29
2018-01-26T10:53:43.855Z,7.23
2018-01-26T10:54:43.864Z,7.25
2018-01-26T10:55:43.888Z,7.23
2018-01-26T10:56:43.895Z,7.26
2018-01-26T10:57:43.916Z,7.26
2018-01-26T10:58:43.926Z,7.25
2018-01-26T10:59:43.948Z,7.29
2018-01-26T11:00:43.972Z,7.28
2018-01-26T11:01:43.973Z,7.26
2018-01-26T11:02:44.005Z,7.29
2018-01-26T11:03:44.021Z,7.26
2018-01-26T11:04:44.028Z,7.29
2018-01-26T11:05:44.043Z,7.28
2018-01-26T11:06:44.055Z,7.28
2018-01-26T11:07:44.068Z,7.25
2018-01-26T11:08:44.093Z,7.29
2018-01-26T11:09:44.098Z,7.29
2018-01-26T11:10:44.124Z,7.26
2018-01-26T11:11:44.141Z,7.26
2018-01-26T11:12:44.149Z,7.36
2018-01-26T11:13:44.173Z,7.37
2018-01-26T11:14:44.179Z,7.40
2018-01-26T11:15:44.207Z,7.40
2018-01-26T11:16:44.214Z,7.39
2018-01-26T11:17:44.230Z,7.41
2018-01-26T11:18:44.252Z,7.37
2018-01-26T11:19:44.267Z,7.40
2018-01-26T11:20:44.279Z,7.43
2018-01-26T11:21:44.296Z,7.43
2018-01-26T11:22:44.311Z,7.43
2018-01-26T11:23:44.325Z,7.40
2018-01-26T11:24:44.347Z,7.46
2018-01-26T11:25:44.363Z,7.56
2018-01-26T11:26:44.377Z,7.50
2018-01-26T11:27:44.395Z,7.50
2018-01-26T11:28:44.401Z,7.53
2018-01-26T11:29:44.427Z,7.53
2018-01-26T11:30:44.434Z,7.53
2018-01-26T11:31:44.463Z,7.51
2018-01-26T11:32:44.481Z,7.61
2018-01-26T11:33:44.485Z,7.61
2018-01-26T11:34:44.513Z,7.66
2018-01-26T11:35:44.512Z,7.59
2018-01-26T11:36:44.534Z,7.59
2018-01-26T11:37:44.551Z,7.66
2018-01-26T11:38:44.568Z,7.67
2018-01-26T11:39:44.595Z,7.67
2018-01-26T11:40:44.603Z,7.70
2018-01-26T11:41:44.621Z,7.64
2018-01-26T11:42:44.630Z,7.69
2018-01-26T11:43:44.647Z,7.66
2018-01-26T11:44:44.677Z,7.70
2018-01-26T11:45:44.681Z,7.62
2018-01-26T11:46:44.702Z,7.77
2018-01-26T11:47:44.711Z,7.67
2018-01-26T11:48:44.733Z,7.67
2018-01-26T11:49:44.749Z,7.81
2018-01-26T11:50:44.780Z,7.83
2018-01-26T11:51:44.781Z,7.74
2018-01-26T11:52:44.791Z,7.77
2018-01-26T11:53:44.820Z,7.83
2018-01-26T11:54:44.831Z,7.87
2018-01-26T11:55:44.844Z,7.87
2018-01-26T11:56:44.871Z,7.80
2018-01-26T11:57:44.871Z,7.88
2018-01-26T11:58:44.927Z,7.90
2018-01-26T11:59:44.917Z,7.87
2018-01-26T12:00:44.924Z,7.93
2018-01-26T12:01:44.950Z,7.93
2018-01-26T12:02:44.962Z,7.90
2018-01-26T12:03:44.981Z,7.95
2018-01-26T12:04:45.005Z,7.95
2018-01-26T12:05:45.007Z,8.02
2018-01-26T12:06:45.033Z,7.95
2018-01-26T12:07:45.047Z,8.02
2018-01-26T12:08:45.061Z,7.99
2018-01-26T12:09:45.088Z,8.03
2018-01-26T12:10:45.088Z,8.02
2018-01-26T12:11:45.126Z,8.14
2018-01-26T12:12:45.136Z,8.16
2018-01-26T12:13:45.141Z,8.09
2018-01-26T12:14:45.169Z,8.11
2018-01-26T12:15:45.181Z,8.09
2018-01-26T12:16:45.189Z,8.08
2018-01-26T12:17:45.215Z,8.21
2018-01-26T12:18:45.224Z,8.17
2018-01-26T12:19:45.255Z,8.26
2018-01-26T12:20:45.270Z,8.26
2018-01-26T12:21:45.272Z,8.27
2018-01-26T12:22:45.303Z,8.27
2018-01-26T12:23:45.317Z,8.34
2018-01-26T12:24:45.325Z,8.21
2018-01-26T12:25:45.352Z,8.34
2018-01-26T12:26:45.358Z,8.31
2018-01-26T12:27:45.380Z,8.41
2018-01-26T12:28:45.400Z,8.45
2018-01-26T12:29:45.405Z,8.36
2018-01-26T12:30:45.433Z,8.42
2018-01-26T12:31:45.450Z,8.34
2018-01-26T12:32:45.462Z,8.46
2018-01-26T12:33:45.487Z,8.49
2018-01-26T12:34:45.505Z,8.41
2018-01-26T12:35:45.511Z,8.52
2018-01-26T12:36:45.555Z,8.53
2018-01-26T12:37:45.562Z,8.56
2018-01-26T12:38:45.566Z,8.53
2018-01-26T12:39:45.590Z,8.45
2018-01-26T12:40:45.653Z,8.49
2018-01-26T12:41:45.612Z,8.44
2018-01-26T12:42:45.641Z,8.41
2018-01-26T12:43:45.646Z,8.50
2018-01-26T12:44:45.665Z,8.50
2018-01-26T12:45:45.690Z,8.46
2018-01-26T12:46:45.701Z,8.60
2018-01-26T12:47:45.732Z,8.52
2018-01-26T12:48:45.747Z,8.41
2018-01-26T12:49:45.746Z,8.59
2018-01-26T12:50:45.790Z,8.49
2018-01-26T12:51:45.789Z,8.46
2018-01-26T12:52:45.803Z,8.52
2018-01-26T12:53:45.823Z,8.53
2018-01-26T12:54:45.842Z,8.46
2018-01-26T12:55:45.854Z,8.53
2018-01-26T12:56:45.891Z,8.42
2018-01-26T12:57:45.894Z,8.53
2018-01-26T12:58:45.909Z,8.59
2018-01-26T12:59:45.926Z,8.45
2018-01-26T13:00:45.932Z,8.46
2018-01-26T13:01:45.960Z,8.45
2018-01-26T13:02:45.976Z,8.50
2018-01-26T13:03:45.989Z,8.46
2018-01-26T13:04:46.010Z,8.50
2018-01-26T13:05:46.055Z,8.53
2018-01-26T13:06:46.041Z,8.56
2018-01-26T13:07:46.059Z,8.53
2018-01-26T13:08:46.080Z,8.54
2018-01-26T13:09:46.093Z,8.54
2018-01-26T13:10:46.111Z,8.46
2018-01-26T13:11:46.121Z,8.54
2018-01-26T13:12:46.141Z,8.53
2018-01-26T13:13:46.196Z,8.53
2018-01-26T13:14:46.174Z,8.46
2018-01-26T13:15:46.191Z,8.44
2018-01-26T13:16:46.213Z,8.45
2018-01-26T13:17:46.226Z,8.44
2018-01-26T13:18:46.241Z,8.50